sensor_id;sensor_type;location;lat;lon;timestamp;temperature;humidity
19952;DHT22;10137;49.406;19.484;2022-12-10T00:01:27;0.80;99.90
19952;DHT22;10137;49.406;19.484;2022-12-10T00:03:57;0.80;99.90
19952;DHT22;10137;49.406;19.484;2022-12-10T00:06:27;0.90;99.90
19952;DHT22;10137;49.406;19.484;2022-12-10T00:08:55;1.00;99.90
19952;DHT22;10137;49.406;19.484;2022-12-10T00:11:23;1.10;99.90
19952;DHT22;10137;49.406;19.484;2022-12-10T00:13:52;1.10;99.90
19952;DHT22;10137;49.406;19.484;2022-12-10T00:16:22;1.20;99.90
19952;DHT22;10137;49.406;19.484;2022-12-10T00:18:51;1.20;99.90
19952;DHT22;10137;49.406;19.484;2022-12-10T00:21:22;1.10;99.90
19952;DHT22;10137;49.406;19.484;2022-12-10T00:23:51;1.20;99.90
19952;DHT22;10137;49.406;19.484;2022-12-10T00:26:21;1.10;99.90
19952;DHT22;10137;49.406;19.484;2022-12-10T00:28:50;1.00;99.90
19952;DHT22;10137;49.406;19.484;2022-12-10T00:31:20;0.90;99.90
19952;DHT22;10137;49.406;19.484;2022-12-10T00:33:49;0.90;99.90
19952;DHT22;10137;49.406;19.484;2022-12-10T00:36:21;1.10;99.90
19952;DHT22;10137;49.406;19.484;2022-12-10T00:38:50;1.00;99.90
19952;DHT22;10137;49.406;19.484;2022-12-10T00:41:18;1.10;99.90
19952;DHT22;10137;49.406;19.484;2022-12-10T00:43:48;1.20;99.90
19952;DHT22;10137;49.406;19.484;2022-12-10T00:46:17;1.20;99.90
19952;DHT22;10137;49.406;19.484;2022-12-10T00:48:45;1.20;99.90
19952;DHT22;10137;49.406;19.484;2022-12-10T00:51:15;1.30;99.90
19952;DHT22;10137;49.406;19.484;2022-12-10T00:53:45;1.30;99.90
19952;DHT22;10137;49.406;19.484;2022-12-10T00:56:15;1.30;99.90
19952;DHT22;10137;49.406;19.484;2022-12-10T00:58:44;1.40;99.90
19952;DHT22;10137;49.406;19.484;2022-12-10T01:01:15;1.40;99.90
19952;DHT22;10137;49.406;19.484;2022-12-10T01:03:43;1.40;99.90
19952;DHT22;10137;49.406;19.484;2022-12-10T01:06:13;1.40;99.90
19952;DHT22;10137;49.406;19.484;2022-12-10T01:08:42;1.40;99.90
19952;DHT22;10137;49.406;19.484;2022-12-10T01:11:12;1.40;99.90
19952;DHT22;10137;49.406;19.484;2022-12-10T01:13:41;1.40;99.90
19952;DHT22;10137;49.406;19.484;2022-12-10T01:16:11;1.40;99.90
19952;DHT22;10137;49.406;19.484;2022-12-10T01:18:40;1.30;99.90
19952;DHT22;10137;49.406;19.484;2022-12-10T01:21:10;1.30;99.90
19952;DHT22;10137;49.406;19.484;2022-12-10T01:23:40;1.30;99.90
19952;DHT22;10137;49.406;19.484;2022-12-10T01:26:12;1.30;99.90
19952;DHT22;10137;49.406;19.484;2022-12-10T01:28:41;1.20;99.90
19952;DHT22;10137;49.406;19.484;2022-12-10T01:31:12;1.10;99.90
19952;DHT22;10137;49.406;19.484;2022-12-10T01:33:41;1.10;99.90
19952;DHT22;10137;49.406;19.484;2022-12-10T01:36:11;1.00;99.90
19952;DHT22;10137;49.406;19.484;2022-12-10T01:38:40;1.00;99.90
19952;DHT22;10137;49.406;19.484;2022-12-10T01:41:15;1.00;99.90
19952;DHT22;10137;49.406;19.484;2022-12-10T01:43:56;1.00;99.90
19952;DHT22;10137;49.406;19.484;2022-12-10T01:46:26;1.00;99.90
19952;DHT22;10137;49.406;19.484;2022-12-10T01:48:55;1.00;99.90
19952;DHT22;10137;49.406;19.484;2022-12-10T01:51:24;1.00;99.90
19952;DHT22;10137;49.406;19.484;2022-12-10T01:53:53;1.00;99.90
19952;DHT22;10137;49.406;19.484;2022-12-10T01:56:23;1.00;99.90
19952;DHT22;10137;49.406;19.484;2022-12-10T01:58:54;1.00;99.90
19952;DHT22;10137;49.406;19.484;2022-12-10T02:01:28;1.00;99.90
19952;DHT22;10137;49.406;19.484;2022-12-10T02:04:05;1.00;99.90
19952;DHT22;10137;49.406;19.484;2022-12-10T02:06:45;1.10;99.90
19952;DHT22;10137;49.406;19.484;2022-12-10T02:09:30;1.20;99.90
19952;DHT22;10137;49.406;19.484;2022-12-10T02:12:09;1.20;99.90
19952;DHT22;10137;49.406;19.484;2022-12-10T02:14:49;1.20;99.90
19952;DHT22;10137;49.406;19.484;2022-12-10T02:17:25;1.30;99.90
19952;DHT22;10137;49.406;19.484;2022-12-10T02:20:04;1.40;99.90
19952;DHT22;10137;49.406;19.484;2022-12-10T02:22:35;1.40;99.90
19952;DHT22;10137;49.406;19.484;2022-12-10T02:25:05;1.40;99.90
19952;DHT22;10137;49.406;19.484;2022-12-10T02:27:39;1.40;99.90
19952;DHT22;10137;49.406;19.484;2022-12-10T02:30:12;1.40;99.90
19952;DHT22;10137;49.406;19.484;2022-12-10T02:32:41;1.40;99.90
19952;DHT22;10137;49.406;19.484;2022-12-10T02:35:14;1.40;99.90
19952;DHT22;10137;49.406;19.484;2022-12-10T02:37:47;1.40;99.90
19952;DHT22;10137;49.406;19.484;2022-12-10T02:40:18;1.50;99.90
19952;DHT22;10137;49.406;19.484;2022-12-10T02:42:49;1.50;99.90
19952;DHT22;10137;49.406;19.484;2022-12-10T02:45:21;1.50;99.90
19952;DHT22;10137;49.406;19.484;2022-12-10T02:47:49;1.50;99.90
19952;DHT22;10137;49.406;19.484;2022-12-10T02:50:18;1.40;99.90
19952;DHT22;10137;49.406;19.484;2022-12-10T02:52:47;1.50;99.90
19952;DHT22;10137;49.406;19.484;2022-12-10T02:55:16;1.50;99.90
19952;DHT22;10137;49.406;19.484;2022-12-10T02:57:59;1.50;99.90
19952;DHT22;10137;49.406;19.484;2022-12-10T03:00:32;1.50;99.90
19952;DHT22;10137;49.406;19.484;2022-12-10T03:03:22;1.50;99.90
19952;DHT22;10137;49.406;19.484;2022-12-10T03:05:57;1.50;99.90
19952;DHT22;10137;49.406;19.484;2022-12-10T03:08:30;1.50;99.90
19952;DHT22;10137;49.406;19.484;2022-12-10T03:11:05;1.50;99.90
19952;DHT22;10137;49.406;19.484;2022-12-10T03:13:40;1.50;99.90
19952;DHT22;10137;49.406;19.484;2022-12-10T03:16:11;1.50;99.90
19952;DHT22;10137;49.406;19.484;2022-12-10T03:18:39;1.50;99.90
19952;DHT22;10137;49.406;19.484;2022-12-10T03:21:08;1.50;99.90
19952;DHT22;10137;49.406;19.484;2022-12-10T03:23:40;1.50;99.90
19952;DHT22;10137;49.406;19.484;2022-12-10T03:26:08;1.50;99.90
19952;DHT22;10137;49.406;19.484;2022-12-10T03:28:41;1.40;99.90
19952;DHT22;10137;49.406;19.484;2022-12-10T03:31:12;1.50;99.90
19952;DHT22;10137;49.406;19.484;2022-12-10T03:33:41;1.50;99.90
19952;DHT22;10137;49.406;19.484;2022-12-10T03:36:09;1.50;99.90
19952;DHT22;10137;49.406;19.484;2022-12-10T03:38:38;1.50;99.90
19952;DHT22;10137;49.406;19.484;2022-12-10T03:41:07;1.50;99.90
19952;DHT22;10137;49.406;19.484;2022-12-10T03:43:35;1.40;99.90
19952;DHT22;10137;49.406;19.484;2022-12-10T03:46:03;1.40;99.90
19952;DHT22;10137;49.406;19.484;2022-12-10T03:48:33;1.50;99.90
19952;DHT22;10137;49.406;19.484;2022-12-10T03:51:00;1.40;99.90
19952;DHT22;10137;49.406;19.484;2022-12-10T03:53:28;1.40;99.90
19952;DHT22;10137;49.406;19.484;2022-12-10T03:55:55;1.40;99.90
19952;DHT22;10137;49.406;19.484;2022-12-10T03:58:23;1.40;99.90
19952;DHT22;10137;49.406;19.484;2022-12-10T04:00:51;1.40;99.90
19952;DHT22;10137;49.406;19.484;2022-12-10T04:03:19;1.30;99.90
19952;DHT22;10137;49.406;19.484;2022-12-10T04:05:49;1.20;99.90
19952;DHT22;10137;49.406;19.484;2022-12-10T04:08:17;1.30;99.90
19952;DHT22;10137;49.406;19.484;2022-12-10T04:10:45;1.30;99.90
19952;DHT22;10137;49.406;19.484;2022-12-10T04:13:14;1.20;99.90
19952;DHT22;10137;49.406;19.484;2022-12-10T04:15:59;1.20;99.90
19952;DHT22;10137;49.406;19.484;2022-12-10T04:18:44;1.30;99.90
19952;DHT22;10137;49.406;19.484;2022-12-10T04:21:14;1.20;99.90
19952;DHT22;10137;49.406;19.484;2022-12-10T04:24:00;1.20;99.90
19952;DHT22;10137;49.406;19.484;2022-12-10T04:26:45;1.30;99.90
19952;DHT22;10137;49.406;19.484;2022-12-10T04:29:18;1.30;99.90
19952;DHT22;10137;49.406;19.484;2022-12-10T04:31:46;1.40;99.90
19952;DHT22;10137;49.406;19.484;2022-12-10T04:34:13;1.40;99.90
19952;DHT22;10137;49.406;19.484;2022-12-10T04:36:42;1.30;99.90
19952;DHT22;10137;49.406;19.484;2022-12-10T04:39:11;1.30;99.90
19952;DHT22;10137;49.406;19.484;2022-12-10T04:41:40;1.30;99.90
19952;DHT22;10137;49.406;19.484;2022-12-10T04:44:08;1.30;99.90
19952;DHT22;10137;49.406;19.484;2022-12-10T04:46:36;1.30;99.90
19952;DHT22;10137;49.406;19.484;2022-12-10T04:49:05;1.30;99.90
19952;DHT22;10137;49.406;19.484;2022-12-10T04:51:33;1.40;99.90
19952;DHT22;10137;49.406;19.484;2022-12-10T04:54:04;1.40;99.90
19952;DHT22;10137;49.406;19.484;2022-12-10T04:56:32;1.40;99.90
19952;DHT22;10137;49.406;19.484;2022-12-10T04:59:02;1.40;99.90
19952;DHT22;10137;49.406;19.484;2022-12-10T05:01:31;1.40;99.90
19952;DHT22;10137;49.406;19.484;2022-12-10T05:03:59;1.40;99.90
19952;DHT22;10137;49.406;19.484;2022-12-10T05:06:28;1.40;99.90
19952;DHT22;10137;49.406;19.484;2022-12-10T05:08:56;1.30;99.90
19952;DHT22;10137;49.406;19.484;2022-12-10T05:11:26;1.40;99.90
19952;DHT22;10137;49.406;19.484;2022-12-10T05:13:54;1.40;99.90
19952;DHT22;10137;49.406;19.484;2022-12-10T05:16:25;1.40;99.90
19952;DHT22;10137;49.406;19.484;2022-12-10T05:18:54;1.40;99.90
19952;DHT22;10137;49.406;19.484;2022-12-10T05:21:24;1.40;99.90
19952;DHT22;10137;49.406;19.484;2022-12-10T05:24:12;1.40;99.90
19952;DHT22;10137;49.406;19.484;2022-12-10T05:26:40;1.40;99.90
19952;DHT22;10137;49.406;19.484;2022-12-10T05:29:08;1.40;99.90
19952;DHT22;10137;49.406;19.484;2022-12-10T05:31:36;1.50;99.90
19952;DHT22;10137;49.406;19.484;2022-12-10T05:34:05;1.40;99.90
19952;DHT22;10137;49.406;19.484;2022-12-10T05:36:34;1.30;99.90
19952;DHT22;10137;49.406;19.484;2022-12-10T05:39:03;1.30;99.90
19952;DHT22;10137;49.406;19.484;2022-12-10T05:41:34;1.30;99.90
19952;DHT22;10137;49.406;19.484;2022-12-10T05:44:04;1.30;99.90
19952;DHT22;10137;49.406;19.484;2022-12-10T05:46:33;1.40;99.90
19952;DHT22;10137;49.406;19.484;2022-12-10T05:49:02;1.30;99.90
19952;DHT22;10137;49.406;19.484;2022-12-10T05:51:33;1.30;99.90
19952;DHT22;10137;49.406;19.484;2022-12-10T05:54:02;1.30;99.90
19952;DHT22;10137;49.406;19.484;2022-12-10T05:56:31;1.20;99.90
19952;DHT22;10137;49.406;19.484;2022-12-10T05:59:01;1.20;99.90
19952;DHT22;10137;49.406;19.484;2022-12-10T06:01:32;1.10;99.90
19952;DHT22;10137;49.406;19.484;2022-12-10T06:04:01;1.10;99.90
19952;DHT22;10137;49.406;19.484;2022-12-10T06:06:31;1.10;99.90
19952;DHT22;10137;49.406;19.484;2022-12-10T06:09:00;1.10;99.90
19952;DHT22;10137;49.406;19.484;2022-12-10T06:11:27;1.20;99.90
19952;DHT22;10137;49.406;19.484;2022-12-10T06:13:55;1.30;99.90
19952;DHT22;10137;49.406;19.484;2022-12-10T06:16:23;1.30;99.90
19952;DHT22;10137;49.406;19.484;2022-12-10T06:18:52;1.30;99.90
19952;DHT22;10137;49.406;19.484;2022-12-10T06:21:20;1.20;99.90
19952;DHT22;10137;49.406;19.484;2022-12-10T06:23:48;1.20;99.90
19952;DHT22;10137;49.406;19.484;2022-12-10T06:26:18;1.20;99.90
19952;DHT22;10137;49.406;19.484;2022-12-10T06:28:46;1.20;99.90
19952;DHT22;10137;49.406;19.484;2022-12-10T06:31:14;1.20;99.90
19952;DHT22;10137;49.406;19.484;2022-12-10T06:33:42;1.20;99.90
19952;DHT22;10137;49.406;19.484;2022-12-10T06:36:12;1.20;99.90
19952;DHT22;10137;49.406;19.484;2022-12-10T06:38:40;1.30;99.90
19952;DHT22;10137;49.406;19.484;2022-12-10T06:41:10;1.20;99.90
19952;DHT22;10137;49.406;19.484;2022-12-10T06:43:37;1.20;99.90
19952;DHT22;10137;49.406;19.484;2022-12-10T06:46:05;1.20;99.90
19952;DHT22;10137;49.406;19.484;2022-12-10T06:48:33;1.20;99.90
19952;DHT22;10137;49.406;19.484;2022-12-10T06:51:00;1.20;99.90
19952;DHT22;10137;49.406;19.484;2022-12-10T06:53:28;1.20;99.90
19952;DHT22;10137;49.406;19.484;2022-12-10T06:55:58;1.10;99.90
19952;DHT22;10137;49.406;19.484;2022-12-10T06:58:26;1.00;99.90
19952;DHT22;10137;49.406;19.484;2022-12-10T07:00:53;1.10;99.90
19952;DHT22;10137;49.406;19.484;2022-12-10T07:03:21;1.10;99.90
19952;DHT22;10137;49.406;19.484;2022-12-10T07:05:48;1.10;99.90
19952;DHT22;10137;49.406;19.484;2022-12-10T07:08:15;1.10;99.90
19952;DHT22;10137;49.406;19.484;2022-12-10T07:10:44;1.10;99.90
19952;DHT22;10137;49.406;19.484;2022-12-10T07:13:11;1.10;99.90
19952;DHT22;10137;49.406;19.484;2022-12-10T07:15:38;1.20;99.90
19952;DHT22;10137;49.406;19.484;2022-12-10T07:18:05;1.20;99.90
19952;DHT22;10137;49.406;19.484;2022-12-10T07:20:32;1.20;99.90
19952;DHT22;10137;49.406;19.484;2022-12-10T07:23:00;1.20;99.90
19952;DHT22;10137;49.406;19.484;2022-12-10T07:25:27;1.10;99.90
19952;DHT22;10137;49.406;19.484;2022-12-10T07:27:55;1.20;99.90
19952;DHT22;10137;49.406;19.484;2022-12-10T07:30:22;1.10;99.90
19952;DHT22;10137;49.406;19.484;2022-12-10T07:32:49;1.20;99.90
19952;DHT22;10137;49.406;19.484;2022-12-10T07:35:16;1.20;99.90
19952;DHT22;10137;49.406;19.484;2022-12-10T07:37:43;1.20;99.90
19952;DHT22;10137;49.406;19.484;2022-12-10T07:40:11;1.20;99.90
19952;DHT22;10137;49.406;19.484;2022-12-10T07:42:38;1.20;99.90
19952;DHT22;10137;49.406;19.484;2022-12-10T07:45:07;1.10;99.90
19952;DHT22;10137;49.406;19.484;2022-12-10T07:47:35;1.10;99.90
19952;DHT22;10137;49.406;19.484;2022-12-10T07:50:03;1.10;99.90
19952;DHT22;10137;49.406;19.484;2022-12-10T07:52:30;1.20;99.90
19952;DHT22;10137;49.406;19.484;2022-12-10T07:54:57;1.10;99.90
19952;DHT22;10137;49.406;19.484;2022-12-10T07:57:24;1.10;99.90
19952;DHT22;10137;49.406;19.484;2022-12-10T07:59:51;1.10;99.90
19952;DHT22;10137;49.406;19.484;2022-12-10T08:02:20;1.10;99.90
19952;DHT22;10137;49.406;19.484;2022-12-10T08:04:48;1.10;99.90
19952;DHT22;10137;49.406;19.484;2022-12-10T08:07:15;1.10;99.90
19952;DHT22;10137;49.406;19.484;2022-12-10T08:09:42;1.20;99.90
19952;DHT22;10137;49.406;19.484;2022-12-10T08:12:09;1.20;99.90
19952;DHT22;10137;49.406;19.484;2022-12-10T08:14:36;1.20;99.90
19952;DHT22;10137;49.406;19.484;2022-12-10T08:17:03;1.20;99.90
19952;DHT22;10137;49.406;19.484;2022-12-10T08:19:32;1.20;99.90
19952;DHT22;10137;49.406;19.484;2022-12-10T08:21:59;1.20;99.90
19952;DHT22;10137;49.406;19.484;2022-12-10T08:24:27;1.10;99.90
19952;DHT22;10137;49.406;19.484;2022-12-10T08:26:55;1.10;99.90
19952;DHT22;10137;49.406;19.484;2022-12-10T08:29:22;1.10;99.90
19952;DHT22;10137;49.406;19.484;2022-12-10T08:31:49;1.10;99.90
19952;DHT22;10137;49.406;19.484;2022-12-10T08:34:18;1.10;99.90
19952;DHT22;10137;49.406;19.484;2022-12-10T08:36:47;1.20;99.90
19952;DHT22;10137;49.406;19.484;2022-12-10T08:39:14;1.20;99.90
19952;DHT22;10137;49.406;19.484;2022-12-10T08:41:43;1.20;99.90
19952;DHT22;10137;49.406;19.484;2022-12-10T08:44:11;1.10;99.90
19952;DHT22;10137;49.406;19.484;2022-12-10T08:46:38;1.20;99.90
19952;DHT22;10137;49.406;19.484;2022-12-10T08:49:06;1.20;99.90
19952;DHT22;10137;49.406;19.484;2022-12-10T08:51:35;1.20;99.90
19952;DHT22;10137;49.406;19.484;2022-12-10T08:54:03;1.20;99.90
19952;DHT22;10137;49.406;19.484;2022-12-10T08:56:30;1.20;99.90
19952;DHT22;10137;49.406;19.484;2022-12-10T08:58:58;1.20;99.90
19952;DHT22;10137;49.406;19.484;2022-12-10T09:01:25;1.20;99.90
19952;DHT22;10137;49.406;19.484;2022-12-10T09:03:52;1.20;99.90
19952;DHT22;10137;49.406;19.484;2022-12-10T09:06:21;1.20;99.90
19952;DHT22;10137;49.406;19.484;2022-12-10T09:08:50;1.20;99.90
19952;DHT22;10137;49.406;19.484;2022-12-10T09:11:21;1.20;99.90
19952;DHT22;10137;49.406;19.484;2022-12-10T09:13:49;1.20;99.90
19952;DHT22;10137;49.406;19.484;2022-12-10T09:16:16;1.20;99.90
19952;DHT22;10137;49.406;19.484;2022-12-10T09:18:44;1.20;99.90
19952;DHT22;10137;49.406;19.484;2022-12-10T09:21:12;1.20;99.90
19952;DHT22;10137;49.406;19.484;2022-12-10T09:23:41;1.20;99.90
19952;DHT22;10137;49.406;19.484;2022-12-10T09:26:10;1.20;99.90
19952;DHT22;10137;49.406;19.484;2022-12-10T09:28:41;1.20;99.90
19952;DHT22;10137;49.406;19.484;2022-12-10T09:31:09;1.20;99.90
19952;DHT22;10137;49.406;19.484;2022-12-10T09:33:37;1.30;99.90
19952;DHT22;10137;49.406;19.484;2022-12-10T09:36:04;1.30;99.90
19952;DHT22;10137;49.406;19.484;2022-12-10T09:38:33;1.30;99.90
19952;DHT22;10137;49.406;19.484;2022-12-10T09:41:02;1.30;99.90
19952;DHT22;10137;49.406;19.484;2022-12-10T09:43:44;1.30;99.90
19952;DHT22;10137;49.406;19.484;2022-12-10T09:46:19;1.40;99.90
19952;DHT22;10137;49.406;19.484;2022-12-10T09:48:57;1.40;99.90
19952;DHT22;10137;49.406;19.484;2022-12-10T09:51:29;1.30;99.90
19952;DHT22;10137;49.406;19.484;2022-12-10T09:53:58;1.30;99.90
19952;DHT22;10137;49.406;19.484;2022-12-10T09:56:28;1.30;99.90
19952;DHT22;10137;49.406;19.484;2022-12-10T09:59:00;1.40;99.90
19952;DHT22;10137;49.406;19.484;2022-12-10T10:01:31;1.40;99.90
19952;DHT22;10137;49.406;19.484;2022-12-10T10:04:00;1.40;99.90
19952;DHT22;10137;49.406;19.484;2022-12-10T10:06:27;1.40;99.90
19952;DHT22;10137;49.406;19.484;2022-12-10T10:08:56;1.30;99.90
19952;DHT22;10137;49.406;19.484;2022-12-10T10:11:27;1.40;99.90
19952;DHT22;10137;49.406;19.484;2022-12-10T10:13:59;1.40;99.90
19952;DHT22;10137;49.406;19.484;2022-12-10T10:16:32;1.30;99.90
19952;DHT22;10137;49.406;19.484;2022-12-10T10:19:01;1.40;99.90
19952;DHT22;10137;49.406;19.484;2022-12-10T10:21:32;1.40;99.90
19952;DHT22;10137;49.406;19.484;2022-12-10T10:24:00;1.40;99.90
19952;DHT22;10137;49.406;19.484;2022-12-10T10:26:28;1.50;99.90
19952;DHT22;10137;49.406;19.484;2022-12-10T10:28:59;1.50;99.90
19952;DHT22;10137;49.406;19.484;2022-12-10T10:31:30;1.50;99.90
19952;DHT22;10137;49.406;19.484;2022-12-10T10:33:59;1.50;99.90
19952;DHT22;10137;49.406;19.484;2022-12-10T10:36:29;1.50;99.90
19952;DHT22;10137;49.406;19.484;2022-12-10T10:39:08;1.60;99.90
19952;DHT22;10137;49.406;19.484;2022-12-10T10:41:38;1.50;99.90
19952;DHT22;10137;49.406;19.484;2022-12-10T10:44:14;1.60;99.90
19952;DHT22;10137;49.406;19.484;2022-12-10T10:46:42;1.60;99.90
19952;DHT22;10137;49.406;19.484;2022-12-10T10:49:22;1.60;99.90
19952;DHT22;10137;49.406;19.484;2022-12-10T10:51:51;1.50;99.90
19952;DHT22;10137;49.406;19.484;2022-12-10T10:54:37;1.50;99.90
19952;DHT22;10137;49.406;19.484;2022-12-10T10:57:10;1.50;99.90
19952;DHT22;10137;49.406;19.484;2022-12-10T10:59:40;1.50;99.90
19952;DHT22;10137;49.406;19.484;2022-12-10T11:02:17;1.50;99.90
19952;DHT22;10137;49.406;19.484;2022-12-10T11:04:48;1.50;99.90
19952;DHT22;10137;49.406;19.484;2022-12-10T11:07:21;1.50;99.90
19952;DHT22;10137;49.406;19.484;2022-12-10T11:09:49;1.50;99.90
19952;DHT22;10137;49.406;19.484;2022-12-10T11:12:33;1.50;99.90
19952;DHT22;10137;49.406;19.484;2022-12-10T11:15:28;1.60;99.90
19952;DHT22;10137;49.406;19.484;2022-12-10T11:17:56;1.60;99.90
19952;DHT22;10137;49.406;19.484;2022-12-10T11:20:27;1.60;99.90
19952;DHT22;10137;49.406;19.484;2022-12-10T11:22:56;1.60;99.90
19952;DHT22;10137;49.406;19.484;2022-12-10T11:25:37;1.60;99.90
19952;DHT22;10137;49.406;19.484;2022-12-10T11:28:17;1.60;99.90
19952;DHT22;10137;49.406;19.484;2022-12-10T11:30:55;1.60;99.90
19952;DHT22;10137;49.406;19.484;2022-12-10T11:33:27;1.60;99.90
19952;DHT22;10137;49.406;19.484;2022-12-10T11:36:03;1.60;99.90
19952;DHT22;10137;49.406;19.484;2022-12-10T11:38:39;1.60;99.90
19952;DHT22;10137;49.406;19.484;2022-12-10T11:41:15;1.60;99.90
19952;DHT22;10137;49.406;19.484;2022-12-10T11:44:10;1.60;99.90
19952;DHT22;10137;49.406;19.484;2022-12-10T11:46:56;1.50;99.90
19952;DHT22;10137;49.406;19.484;2022-12-10T11:49:35;1.60;99.90
19952;DHT22;10137;49.406;19.484;2022-12-10T11:52:13;1.60;99.90
19952;DHT22;10137;49.406;19.484;2022-12-10T11:54:56;1.60;99.90
19952;DHT22;10137;49.406;19.484;2022-12-10T11:57:38;1.60;99.90
19952;DHT22;10137;49.406;19.484;2022-12-10T12:00:19;1.60;99.90
19952;DHT22;10137;49.406;19.484;2022-12-10T12:03:10;1.50;99.90
19952;DHT22;10137;49.406;19.484;2022-12-10T12:06:04;1.50;99.90
19952;DHT22;10137;49.406;19.484;2022-12-10T12:08:39;1.50;99.90
19952;DHT22;10137;49.406;19.484;2022-12-10T12:11:25;1.50;99.90
19952;DHT22;10137;49.406;19.484;2022-12-10T12:14:01;1.50;99.90
19952;DHT22;10137;49.406;19.484;2022-12-10T12:16:37;1.50;99.90
19952;DHT22;10137;49.406;19.484;2022-12-10T12:19:17;1.50;99.90
19952;DHT22;10137;49.406;19.484;2022-12-10T12:21:49;1.60;99.90
19952;DHT22;10137;49.406;19.484;2022-12-10T12:24:25;1.50;99.90
19952;DHT22;10137;49.406;19.484;2022-12-10T12:27:00;1.60;99.90
19952;DHT22;10137;49.406;19.484;2022-12-10T12:29:32;1.60;99.90
19952;DHT22;10137;49.406;19.484;2022-12-10T12:32:03;1.60;99.90
19952;DHT22;10137;49.406;19.484;2022-12-10T12:34:46;1.60;99.90
19952;DHT22;10137;49.406;19.484;2022-12-10T12:37:18;1.50;99.90
19952;DHT22;10137;49.406;19.484;2022-12-10T12:39:52;1.60;99.90
19952;DHT22;10137;49.406;19.484;2022-12-10T12:42:27;1.50;99.90
19952;DHT22;10137;49.406;19.484;2022-12-10T12:45:02;1.50;99.90
19952;DHT22;10137;49.406;19.484;2022-12-10T12:47:38;1.40;99.90
19952;DHT22;10137;49.406;19.484;2022-12-10T12:50:20;1.50;99.90
19952;DHT22;10137;49.406;19.484;2022-12-10T12:52:53;1.50;99.90
19952;DHT22;10137;49.406;19.484;2022-12-10T12:55:31;1.40;99.90
19952;DHT22;10137;49.406;19.484;2022-12-10T12:58:15;1.40;99.90
19952;DHT22;10137;49.406;19.484;2022-12-10T13:00:48;1.40;99.90
19952;DHT22;10137;49.406;19.484;2022-12-10T13:03:38;1.40;99.90
19952;DHT22;10137;49.406;19.484;2022-12-10T13:06:21;1.40;99.90
19952;DHT22;10137;49.406;19.484;2022-12-10T13:08:53;1.40;99.90
19952;DHT22;10137;49.406;19.484;2022-12-10T13:11:32;1.40;99.90
19952;DHT22;10137;49.406;19.484;2022-12-10T13:14:13;1.40;99.90
19952;DHT22;10137;49.406;19.484;2022-12-10T13:16:58;1.40;99.90
19952;DHT22;10137;49.406;19.484;2022-12-10T13:19:30;1.40;99.90
19952;DHT22;10137;49.406;19.484;2022-12-10T13:22:11;1.40;99.90
19952;DHT22;10137;49.406;19.484;2022-12-10T13:25:10;1.40;99.90
19952;DHT22;10137;49.406;19.484;2022-12-10T13:27:57;1.40;99.90
19952;DHT22;10137;49.406;19.484;2022-12-10T13:31:22;1.40;99.90
19952;DHT22;10137;49.406;19.484;2022-12-10T13:34:30;1.40;99.90
19952;DHT22;10137;49.406;19.484;2022-12-10T13:37:33;1.30;99.90
19952;DHT22;10137;49.406;19.484;2022-12-10T13:40:22;1.40;99.90
19952;DHT22;10137;49.406;19.484;2022-12-10T13:42:58;1.40;99.90
19952;DHT22;10137;49.406;19.484;2022-12-10T13:45:44;1.40;99.90
19952;DHT22;10137;49.406;19.484;2022-12-10T13:48:33;1.30;99.90
19952;DHT22;10137;49.406;19.484;2022-12-10T13:51:21;1.40;99.90
19952;DHT22;10137;49.406;19.484;2022-12-10T13:54:29;1.30;99.90
19952;DHT22;10137;49.406;19.484;2022-12-10T13:57:22;1.30;99.90
19952;DHT22;10137;49.406;19.484;2022-12-10T14:00:07;1.30;99.90
19952;DHT22;10137;49.406;19.484;2022-12-10T14:03:01;1.30;99.90
19952;DHT22;10137;49.406;19.484;2022-12-10T14:06:13;1.20;99.90
19952;DHT22;10137;49.406;19.484;2022-12-10T14:08:55;1.30;99.90
19952;DHT22;10137;49.406;19.484;2022-12-10T14:11:30;1.20;99.90
19952;DHT22;10137;49.406;19.484;2022-12-10T14:14:00;1.20;99.90
19952;DHT22;10137;49.406;19.484;2022-12-10T14:16:30;1.20;99.90
19952;DHT22;10137;49.406;19.484;2022-12-10T14:19:00;1.20;99.90
19952;DHT22;10137;49.406;19.484;2022-12-10T14:21:32;1.20;99.90
19952;DHT22;10137;49.406;19.484;2022-12-10T14:24:00;1.20;99.90
19952;DHT22;10137;49.406;19.484;2022-12-10T14:26:30;1.20;99.90
19952;DHT22;10137;49.406;19.484;2022-12-10T14:28:59;1.20;99.90
19952;DHT22;10137;49.406;19.484;2022-12-10T14:31:28;1.10;99.90
19952;DHT22;10137;49.406;19.484;2022-12-10T14:34:00;1.10;99.90
19952;DHT22;10137;49.406;19.484;2022-12-10T14:36:30;1.10;99.90
19952;DHT22;10137;49.406;19.484;2022-12-10T14:38:57;1.10;99.90
19952;DHT22;10137;49.406;19.484;2022-12-10T14:41:28;1.10;99.90
19952;DHT22;10137;49.406;19.484;2022-12-10T14:43:58;1.10;99.90
19952;DHT22;10137;49.406;19.484;2022-12-10T14:46:28;1.10;99.90
19952;DHT22;10137;49.406;19.484;2022-12-10T14:48:57;1.10;99.90
19952;DHT22;10137;49.406;19.484;2022-12-10T14:51:26;1.10;99.90
19952;DHT22;10137;49.406;19.484;2022-12-10T14:53:54;1.10;99.90
19952;DHT22;10137;49.406;19.484;2022-12-10T14:56:25;1.10;99.90
19952;DHT22;10137;49.406;19.484;2022-12-10T14:59:00;1.10;99.90
19952;DHT22;10137;49.406;19.484;2022-12-10T15:01:31;1.10;99.90
19952;DHT22;10137;49.406;19.484;2022-12-10T15:04:00;1.10;99.90
19952;DHT22;10137;49.406;19.484;2022-12-10T15:06:28;1.10;99.90
19952;DHT22;10137;49.406;19.484;2022-12-10T15:08:57;1.00;99.90
19952;DHT22;10137;49.406;19.484;2022-12-10T15:11:26;1.10;99.90
19952;DHT22;10137;49.406;19.484;2022-12-10T15:13:58;1.00;99.90
19952;DHT22;10137;49.406;19.484;2022-12-10T15:16:31;1.00;99.90
19952;DHT22;10137;49.406;19.484;2022-12-10T15:19:09;1.00;99.90
19952;DHT22;10137;49.406;19.484;2022-12-10T15:21:43;1.00;99.90
19952;DHT22;10137;49.406;19.484;2022-12-10T15:24:15;0.90;99.90
19952;DHT22;10137;49.406;19.484;2022-12-10T15:26:43;0.90;99.90
19952;DHT22;10137;49.406;19.484;2022-12-10T15:29:35;1.00;99.90
19952;DHT22;10137;49.406;19.484;2022-12-10T15:32:10;1.00;99.90
19952;DHT22;10137;49.406;19.484;2022-12-10T15:34:42;0.90;99.90
19952;DHT22;10137;49.406;19.484;2022-12-10T15:37:23;0.90;99.90
19952;DHT22;10137;49.406;19.484;2022-12-10T15:39:52;0.90;99.90
19952;DHT22;10137;49.406;19.484;2022-12-10T15:42:44;0.90;99.90
19952;DHT22;10137;49.406;19.484;2022-12-10T15:45:18;0.90;99.90
19952;DHT22;10137;49.406;19.484;2022-12-10T15:47:46;0.80;99.90
19952;DHT22;10137;49.406;19.484;2022-12-10T15:50:13;0.90;99.90
19952;DHT22;10137;49.406;19.484;2022-12-10T15:52:41;1.00;99.90
19952;DHT22;10137;49.406;19.484;2022-12-10T15:55:11;0.90;99.90
19952;DHT22;10137;49.406;19.484;2022-12-10T15:57:40;0.90;99.90
19952;DHT22;10137;49.406;19.484;2022-12-10T16:00:17;0.80;99.90
19952;DHT22;10137;49.406;19.484;2022-12-10T16:02:47;0.90;99.90